sensor_id;sensor_type;location;lat;lon;timestamp;temperature;humidity
18291;DHT22;9271;48.590;8.866;2023-09-18T00:00:07;20.50;99.90
18291;DHT22;9271;48.590;8.866;2023-09-18T00:02:38;20.50;99.90
18291;DHT22;9271;48.590;8.866;2023-09-18T00:05:05;20.50;99.90
18291;DHT22;9271;48.590;8.866;2023-09-18T00:07:32;20.40;99.90
18291;DHT22;9271;48.590;8.866;2023-09-18T00:09:59;20.40;99.90
18291;DHT22;9271;48.590;8.866;2023-09-18T00:12:25;20.40;99.90
18291;DHT22;9271;48.590;8.866;2023-09-18T00:14:52;20.60;99.90
18291;DHT22;9271;48.590;8.866;2023-09-18T00:17:18;20.40;99.90
18291;DHT22;9271;48.590;8.866;2023-09-18T00:19:48;20.40;99.90
18291;DHT22;9271;48.590;8.866;2023-09-18T00:22:14;20.50;99.90
18291;DHT22;9271;48.590;8.866;2023-09-18T00:24:41;20.40;99.90
18291;DHT22;9271;48.590;8.866;2023-09-18T00:27:07;20.60;99.90
18291;DHT22;9271;48.590;8.866;2023-09-18T00:29:36;20.50;99.90
18291;DHT22;9271;48.590;8.866;2023-09-18T00:32:03;20.50;99.90
18291;DHT22;9271;48.590;8.866;2023-09-18T00:34:30;20.60;99.90
18291;DHT22;9271;48.590;8.866;2023-09-18T00:36:58;20.50;99.90
18291;DHT22;9271;48.590;8.866;2023-09-18T00:39:25;20.60;99.90
18291;DHT22;9271;48.590;8.866;2023-09-18T00:41:52;20.60;99.90
18291;DHT22;9271;48.590;8.866;2023-09-18T00:44:19;20.60;99.90
18291;DHT22;9271;48.590;8.866;2023-09-18T00:46:47;20.60;99.90
18291;DHT22;9271;48.590;8.866;2023-09-18T00:49:14;20.70;99.90
18291;DHT22;9271;48.590;8.866;2023-09-18T00:51:41;20.70;99.90
18291;DHT22;9271;48.590;8.866;2023-09-18T00:54:10;20.80;99.90
18291;DHT22;9271;48.590;8.866;2023-09-18T00:56:37;20.90;99.90
18291;DHT22;9271;48.590;8.866;2023-09-18T00:59:04;20.50;99.90
18291;DHT22;9271;48.590;8.866;2023-09-18T01:01:31;20.50;99.90
18291;DHT22;9271;48.590;8.866;2023-09-18T01:03:59;20.70;99.90
18291;DHT22;9271;48.590;8.866;2023-09-18T01:06:26;20.80;99.90
18291;DHT22;9271;48.590;8.866;2023-09-18T01:08:56;20.80;99.90
18291;DHT22;9271;48.590;8.866;2023-09-18T01:11:29;20.70;99.90
18291;DHT22;9271;48.590;8.866;2023-09-18T01:14:03;20.80;99.90
18291;DHT22;9271;48.590;8.866;2023-09-18T01:16:39;20.80;99.90
18291;DHT22;9271;48.590;8.866;2023-09-18T01:19:10;20.90;99.90
18291;DHT22;9271;48.590;8.866;2023-09-18T01:21:36;20.80;99.90
18291;DHT22;9271;48.590;8.866;2023-09-18T01:24:05;20.90;99.90
18291;DHT22;9271;48.590;8.866;2023-09-18T01:26:32;20.70;99.90
18291;DHT22;9271;48.590;8.866;2023-09-18T01:28:58;19.70;99.90
18291;DHT22;9271;48.590;8.866;2023-09-18T01:31:25;19.20;99.90
18291;DHT22;9271;48.590;8.866;2023-09-18T01:33:52;19.40;99.90
18291;DHT22;9271;48.590;8.866;2023-09-18T01:36:20;19.80;99.90
18291;DHT22;9271;48.590;8.866;2023-09-18T01:38:48;20.20;99.90
18291;DHT22;9271;48.590;8.866;2023-09-18T01:41:17;20.20;99.90
18291;DHT22;9271;48.590;8.866;2023-09-18T01:43:43;20.20;99.90
18291;DHT22;9271;48.590;8.866;2023-09-18T01:46:11;20.10;99.90
18291;DHT22;9271;48.590;8.866;2023-09-18T01:48:37;20.10;99.90
18291;DHT22;9271;48.590;8.866;2023-09-18T01:51:03;20.00;99.90
18291;DHT22;9271;48.590;8.866;2023-09-18T01:53:30;19.80;99.90
18291;DHT22;9271;48.590;8.866;2023-09-18T01:55:56;19.90;99.90
18291;DHT22;9271;48.590;8.866;2023-09-18T01:58:24;19.70;99.90
18291;DHT22;9271;48.590;8.866;2023-09-18T02:00:51;19.00;99.90
18291;DHT22;9271;48.590;8.866;2023-09-18T02:03:18;19.00;99.90
18291;DHT22;9271;48.590;8.866;2023-09-18T02:05:46;19.10;99.90
18291;DHT22;9271;48.590;8.866;2023-09-18T02:08:12;19.40;99.90
18291;DHT22;9271;48.590;8.866;2023-09-18T02:10:39;19.20;99.90
18291;DHT22;9271;48.590;8.866;2023-09-18T02:13:05;19.10;99.90
18291;DHT22;9271;48.590;8.866;2023-09-18T02:15:37;19.10;99.90
18291;DHT22;9271;48.590;8.866;2023-09-18T02:18:04;19.30;99.90
18291;DHT22;9271;48.590;8.866;2023-09-18T02:20:30;19.60;99.90
18291;DHT22;9271;48.590;8.866;2023-09-18T02:22:57;19.80;99.90
18291;DHT22;9271;48.590;8.866;2023-09-18T02:25:24;19.90;99.90
18291;DHT22;9271;48.590;8.866;2023-09-18T02:27:51;20.00;99.90
18291;DHT22;9271;48.590;8.866;2023-09-18T02:30:18;20.10;99.90
18291;DHT22;9271;48.590;8.866;2023-09-18T02:32:46;20.10;99.90
18291;DHT22;9271;48.590;8.866;2023-09-18T02:35:13;20.10;99.90
18291;DHT22;9271;48.590;8.866;2023-09-18T02:37:40;20.00;99.90
18291;DHT22;9271;48.590;8.866;2023-09-18T02:40:07;19.90;99.90
18291;DHT22;9271;48.590;8.866;2023-09-18T02:42:34;20.00;99.90
18291;DHT22;9271;48.590;8.866;2023-09-18T02:45:01;20.00;99.90
18291;DHT22;9271;48.590;8.866;2023-09-18T02:47:27;19.80;99.90
18291;DHT22;9271;48.590;8.866;2023-09-18T02:49:55;19.90;99.90
18291;DHT22;9271;48.590;8.866;2023-09-18T02:52:22;19.90;99.90
18291;DHT22;9271;48.590;8.866;2023-09-18T02:54:48;19.90;99.90
18291;DHT22;9271;48.590;8.866;2023-09-18T02:57:15;19.90;99.90
18291;DHT22;9271;48.590;8.866;2023-09-18T02:59:42;19.80;99.90
18291;DHT22;9271;48.590;8.866;2023-09-18T03:02:09;19.90;99.90
18291;DHT22;9271;48.590;8.866;2023-09-18T03:04:36;19.90;99.90
18291;DHT22;9271;48.590;8.866;2023-09-18T03:07:04;19.60;99.90
18291;DHT22;9271;48.590;8.866;2023-09-18T03:09:30;19.60;99.90
18291;DHT22;9271;48.590;8.866;2023-09-18T03:11:57;19.60;99.90
18291;DHT22;9271;48.590;8.866;2023-09-18T03:14:24;19.70;99.90
18291;DHT22;9271;48.590;8.866;2023-09-18T03:16:50;19.70;99.90
18291;DHT22;9271;48.590;8.866;2023-09-18T03:19:17;19.20;99.90
18291;DHT22;9271;48.590;8.866;2023-09-18T03:21:44;18.80;99.90
18291;DHT22;9271;48.590;8.866;2023-09-18T03:24:12;18.70;99.90
18291;DHT22;9271;48.590;8.866;2023-09-18T03:26:38;18.50;99.90
18291;DHT22;9271;48.590;8.866;2023-09-18T03:29:05;18.70;99.90
18291;DHT22;9271;48.590;8.866;2023-09-18T03:31:31;18.80;99.90
18291;DHT22;9271;48.590;8.866;2023-09-18T03:33:58;19.30;99.90
18291;DHT22;9271;48.590;8.866;2023-09-18T03:36:25;19.60;99.90
18291;DHT22;9271;48.590;8.866;2023-09-18T03:38:51;19.90;99.90
18291;DHT22;9271;48.590;8.866;2023-09-18T03:41:19;19.90;99.90
18291;DHT22;9271;48.590;8.866;2023-09-18T03:43:46;20.10;99.90
18291;DHT22;9271;48.590;8.866;2023-09-18T03:46:14;20.30;99.90
18291;DHT22;9271;48.590;8.866;2023-09-18T03:48:41;20.30;99.90
18291;DHT22;9271;48.590;8.866;2023-09-18T03:51:07;20.30;99.90
18291;DHT22;9271;48.590;8.866;2023-09-18T03:53:35;20.30;99.90
18291;DHT22;9271;48.590;8.866;2023-09-18T03:56:02;20.10;99.90
18291;DHT22;9271;48.590;8.866;2023-09-18T03:58:30;20.10;99.90
18291;DHT22;9271;48.590;8.866;2023-09-18T04:00:57;20.30;99.90
18291;DHT22;9271;48.590;8.866;2023-09-18T04:03:23;20.40;99.90
18291;DHT22;9271;48.590;8.866;2023-09-18T04:05:50;20.40;99.90
18291;DHT22;9271;48.590;8.866;2023-09-18T04:08:16;20.50;99.90
18291;DHT22;9271;48.590;8.866;2023-09-18T04:10:43;20.50;99.90
18291;DHT22;9271;48.590;8.866;2023-09-18T04:13:10;20.50;99.90
18291;DHT22;9271;48.590;8.866;2023-09-18T04:15:38;20.50;99.90
18291;DHT22;9271;48.590;8.866;2023-09-18T04:18:05;20.60;99.90
18291;DHT22;9271;48.590;8.866;2023-09-18T04:20:32;20.60;99.90
18291;DHT22;9271;48.590;8.866;2023-09-18T04:23:19;20.60;99.90
18291;DHT22;9271;48.590;8.866;2023-09-18T04:25:47;20.60;99.90
18291;DHT22;9271;48.590;8.866;2023-09-18T04:28:14;20.80;99.90
18291;DHT22;9271;48.590;8.866;2023-09-18T04:30:42;21.00;99.90
18291;DHT22;9271;48.590;8.866;2023-09-18T04:33:08;21.20;99.90
18291;DHT22;9271;48.590;8.866;2023-09-18T04:35:35;21.30;99.90
18291;DHT22;9271;48.590;8.866;2023-09-18T04:38:03;21.20;99.90
18291;DHT22;9271;48.590;8.866;2023-09-18T04:40:30;21.00;99.90
18291;DHT22;9271;48.590;8.866;2023-09-18T04:42:57;20.90;99.90
18291;DHT22;9271;48.590;8.866;2023-09-18T04:45:24;20.90;99.90
18291;DHT22;9271;48.590;8.866;2023-09-18T04:47:52;21.00;99.90
18291;DHT22;9271;48.590;8.866;2023-09-18T04:50:19;21.00;99.90
18291;DHT22;9271;48.590;8.866;2023-09-18T04:52:46;21.10;99.90
18291;DHT22;9271;48.590;8.866;2023-09-18T04:55:13;21.10;99.90
18291;DHT22;9271;48.590;8.866;2023-09-18T04:57:40;20.60;99.90
18291;DHT22;9271;48.590;8.866;2023-09-18T05:00:07;20.50;99.90
18291;DHT22;9271;48.590;8.866;2023-09-18T05:02:38;20.60;99.90
18291;DHT22;9271;48.590;8.866;2023-09-18T05:05:07;20.80;99.90
18291;DHT22;9271;48.590;8.866;2023-09-18T05:07:35;20.80;99.90
18291;DHT22;9271;48.590;8.866;2023-09-18T05:10:02;20.80;99.90
18291;DHT22;9271;48.590;8.866;2023-09-18T05:12:30;20.60;99.90
18291;DHT22;9271;48.590;8.866;2023-09-18T05:14:57;20.70;99.90
18291;DHT22;9271;48.590;8.866;2023-09-18T05:17:39;20.70;99.90
18291;DHT22;9271;48.590;8.866;2023-09-18T05:20:09;20.70;99.90
18291;DHT22;9271;48.590;8.866;2023-09-18T05:22:37;20.70;99.90
18291;DHT22;9271;48.590;8.866;2023-09-18T05:25:04;20.90;99.90
18291;DHT22;9271;48.590;8.866;2023-09-18T05:27:32;20.90;99.90
18291;DHT22;9271;48.590;8.866;2023-09-18T05:29:58;20.80;99.90
18291;DHT22;9271;48.590;8.866;2023-09-18T05:32:25;20.90;99.90
18291;DHT22;9271;48.590;8.866;2023-09-18T05:34:52;20.90;99.90
18291;DHT22;9271;48.590;8.866;2023-09-18T05:37:20;20.90;99.90
18291;DHT22;9271;48.590;8.866;2023-09-18T05:39:46;20.90;99.90
18291;DHT22;9271;48.590;8.866;2023-09-18T05:42:14;21.00;99.90
18291;DHT22;9271;48.590;8.866;2023-09-18T05:44:41;21.20;99.90
18291;DHT22;9271;48.590;8.866;2023-09-18T05:47:08;21.20;99.90
18291;DHT22;9271;48.590;8.866;2023-09-18T05:49:34;21.30;99.90
18291;DHT22;9271;48.590;8.866;2023-09-18T05:52:01;21.20;99.90
18291;DHT22;9271;48.590;8.866;2023-09-18T05:54:29;21.30;99.90
18291;DHT22;9271;48.590;8.866;2023-09-18T05:56:56;21.20;99.90
18291;DHT22;9271;48.590;8.866;2023-09-18T05:59:22;21.00;99.90
18291;DHT22;9271;48.590;8.866;2023-09-18T06:01:49;20.80;99.90
18291;DHT22;9271;48.590;8.866;2023-09-18T06:04:16;20.90;99.90
18291;DHT22;9271;48.590;8.866;2023-09-18T06:06:43;20.80;99.90
18291;DHT22;9271;48.590;8.866;2023-09-18T06:09:09;21.00;99.90
18291;DHT22;9271;48.590;8.866;2023-09-18T06:11:37;21.10;99.90
18291;DHT22;9271;48.590;8.866;2023-09-18T06:14:04;21.20;99.90
18291;DHT22;9271;48.590;8.866;2023-09-18T06:16:31;21.20;99.90
18291;DHT22;9271;48.590;8.866;2023-09-18T06:18:57;21.20;99.90
18291;DHT22;9271;48.590;8.866;2023-09-18T06:21:25;21.20;99.90
18291;DHT22;9271;48.590;8.866;2023-09-18T06:23:52;21.10;99.90
18291;DHT22;9271;48.590;8.866;2023-09-18T06:26:19;21.40;99.90
18291;DHT22;9271;48.590;8.866;2023-09-18T06:28:48;21.60;99.90
18291;DHT22;9271;48.590;8.866;2023-09-18T06:31:15;21.60;99.90
18291;DHT22;9271;48.590;8.866;2023-09-18T06:33:41;21.60;99.90
18291;DHT22;9271;48.590;8.866;2023-09-18T06:36:08;21.60;99.90
18291;DHT22;9271;48.590;8.866;2023-09-18T06:38:35;21.60;99.90
18291;DHT22;9271;48.590;8.866;2023-09-18T06:41:01;21.50;99.90
18291;DHT22;9271;48.590;8.866;2023-09-18T06:43:28;21.30;99.90
18291;DHT22;9271;48.590;8.866;2023-09-18T06:45:56;21.20;99.90
18291;DHT22;9271;48.590;8.866;2023-09-18T06:48:23;20.80;99.90
18291;DHT22;9271;48.590;8.866;2023-09-18T06:50:50;20.90;99.90
18291;DHT22;9271;48.590;8.866;2023-09-18T06:53:16;20.80;99.90
18291;DHT22;9271;48.590;8.866;2023-09-18T06:55:43;20.90;99.90
18291;DHT22;9271;48.590;8.866;2023-09-18T06:58:10;21.20;99.90
18291;DHT22;9271;48.590;8.866;2023-09-18T07:00:36;21.40;99.90
18291;DHT22;9271;48.590;8.866;2023-09-18T07:03:06;21.50;99.90
18291;DHT22;9271;48.590;8.866;2023-09-18T07:05:35;21.60;99.90
18291;DHT22;9271;48.590;8.866;2023-09-18T07:08:02;21.50;99.90
18291;DHT22;9271;48.590;8.866;2023-09-18T07:10:30;21.50;99.90
18291;DHT22;9271;48.590;8.866;2023-09-18T07:12:58;21.50;99.90
18291;DHT22;9271;48.590;8.866;2023-09-18T07:15:25;21.50;99.90
18291;DHT22;9271;48.590;8.866;2023-09-18T07:17:51;21.60;99.90
18291;DHT22;9271;48.590;8.866;2023-09-18T07:20:19;21.90;99.90
18291;DHT22;9271;48.590;8.866;2023-09-18T07:22:48;21.60;99.90
18291;DHT22;9271;48.590;8.866;2023-09-18T07:25:15;21.40;99.90
18291;DHT22;9271;48.590;8.866;2023-09-18T07:27:42;21.00;99.90
18291;DHT22;9271;48.590;8.866;2023-09-18T07:30:10;20.40;99.90
18291;DHT22;9271;48.590;8.866;2023-09-18T07:32:39;20.40;99.90
18291;DHT22;9271;48.590;8.866;2023-09-18T07:35:08;20.30;99.90
18291;DHT22;9271;48.590;8.866;2023-09-18T07:37:36;20.30;99.90
18291;DHT22;9271;48.590;8.866;2023-09-18T07:40:04;20.30;99.90
18291;DHT22;9271;48.590;8.866;2023-09-18T07:42:30;20.20;99.90
18291;DHT22;9271;48.590;8.866;2023-09-18T07:44:57;20.40;99.90
18291;DHT22;9271;48.590;8.866;2023-09-18T07:47:24;20.50;99.90
18291;DHT22;9271;48.590;8.866;2023-09-18T07:49:51;20.80;99.90
18291;DHT22;9271;48.590;8.866;2023-09-18T07:52:19;20.70;99.90
18291;DHT22;9271;48.590;8.866;2023-09-18T07:54:47;20.60;99.90
18291;DHT22;9271;48.590;8.866;2023-09-18T07:57:15;20.50;99.90
18291;DHT22;9271;48.590;8.866;2023-09-18T07:59:42;20.80;99.90
18291;DHT22;9271;48.590;8.866;2023-09-18T08:02:09;20.70;99.90
18291;DHT22;9271;48.590;8.866;2023-09-18T08:04:36;20.90;99.90
18291;DHT22;9271;48.590;8.866;2023-09-18T08:07:03;21.00;99.90
18291;DHT22;9271;48.590;8.866;2023-09-18T08:09:31;21.30;99.90
18291;DHT22;9271;48.590;8.866;2023-09-18T08:12:00;20.80;99.90
18291;DHT22;9271;48.590;8.866;2023-09-18T08:14:27;20.10;99.90
18291;DHT22;9271;48.590;8.866;2023-09-18T08:16:56;19.80;99.90
18291;DHT22;9271;48.590;8.866;2023-09-18T08:19:23;19.40;99.90
18291;DHT22;9271;48.590;8.866;2023-09-18T08:21:52;19.00;99.90
18291;DHT22;9271;48.590;8.866;2023-09-18T08:24:19;18.60;99.90
18291;DHT22;9271;48.590;8.866;2023-09-18T08:26:46;18.60;99.90
18291;DHT22;9271;48.590;8.866;2023-09-18T08:29:14;18.90;99.90
18291;DHT22;9271;48.590;8.866;2023-09-18T08:31:41;19.40;99.90
18291;DHT22;9271;48.590;8.866;2023-09-18T08:34:08;19.80;99.90
18291;DHT22;9271;48.590;8.866;2023-09-18T08:36:35;20.10;99.90
18291;DHT22;9271;48.590;8.866;2023-09-18T08:39:02;20.30;99.90
18291;DHT22;9271;48.590;8.866;2023-09-18T08:41:32;20.30;99.90
18291;DHT22;9271;48.590;8.866;2023-09-18T08:44:01;20.40;99.90
18291;DHT22;9271;48.590;8.866;2023-09-18T08:46:30;20.30;99.90
18291;DHT22;9271;48.590;8.866;2023-09-18T08:48:57;20.20;99.90
18291;DHT22;9271;48.590;8.866;2023-09-18T08:51:25;20.00;99.90
18291;DHT22;9271;48.590;8.866;2023-09-18T08:53:53;19.90;99.90
18291;DHT22;9271;48.590;8.866;2023-09-18T08:56:21;20.00;99.90
18291;DHT22;9271;48.590;8.866;2023-09-18T08:58:49;19.90;99.90
18291;DHT22;9271;48.590;8.866;2023-09-18T09:01:15;19.50;99.90
18291;DHT22;9271;48.590;8.866;2023-09-18T09:03:44;19.60;99.90
18291;DHT22;9271;48.590;8.866;2023-09-18T09:06:12;19.80;99.90
18291;DHT22;9271;48.590;8.866;2023-09-18T09:08:39;20.10;99.90
18291;DHT22;9271;48.590;8.866;2023-09-18T09:11:06;20.40;99.90
18291;DHT22;9271;48.590;8.866;2023-09-18T09:13:32;20.70;99.90
18291;DHT22;9271;48.590;8.866;2023-09-18T09:15:59;20.80;99.90
18291;DHT22;9271;48.590;8.866;2023-09-18T09:18:28;20.90;99.90
18291;DHT22;9271;48.590;8.866;2023-09-18T09:20:59;21.00;99.90
18291;DHT22;9271;48.590;8.866;2023-09-18T09:23:28;21.10;99.90
18291;DHT22;9271;48.590;8.866;2023-09-18T09:26:11;21.10;99.90
18291;DHT22;9271;48.590;8.866;2023-09-18T09:28:38;20.90;99.90
18291;DHT22;9271;48.590;8.866;2023-09-18T09:31:05;20.40;99.90
18291;DHT22;9271;48.590;8.866;2023-09-18T09:33:32;20.30;99.90
18291;DHT22;9271;48.590;8.866;2023-09-18T09:36:00;20.60;99.90
18291;DHT22;9271;48.590;8.866;2023-09-18T09:38:31;20.50;99.90
18291;DHT22;9271;48.590;8.866;2023-09-18T09:40:59;20.90;99.90
18291;DHT22;9271;48.590;8.866;2023-09-18T09:43:26;21.10;99.90
18291;DHT22;9271;48.590;8.866;2023-09-18T09:45:57;21.20;99.90
18291;DHT22;9271;48.590;8.866;2023-09-18T09:48:24;20.90;99.90
18291;DHT22;9271;48.590;8.866;2023-09-18T09:50:52;20.70;99.90
18291;DHT22;9271;48.590;8.866;2023-09-18T09:53:44;21.00;99.90
18291;DHT22;9271;48.590;8.866;2023-09-18T09:56:12;21.40;99.90
18291;DHT22;9271;48.590;8.866;2023-09-18T09:58:38;21.40;99.90
18291;DHT22;9271;48.590;8.866;2023-09-18T10:01:12;21.20;99.90
18291;DHT22;9271;48.590;8.866;2023-09-18T10:03:43;21.10;99.90
18291;DHT22;9271;48.590;8.866;2023-09-18T10:06:10;20.90;99.90
18291;DHT22;9271;48.590;8.866;2023-09-18T10:08:39;20.20;99.90
18291;DHT22;9271;48.590;8.866;2023-09-18T10:11:08;19.30;99.90
18291;DHT22;9271;48.590;8.866;2023-09-18T10:13:41;19.50;99.90
18291;DHT22;9271;48.590;8.866;2023-09-18T10:16:13;19.80;99.90
18291;DHT22;9271;48.590;8.866;2023-09-18T10:18:59;19.70;99.90
18291;DHT22;9271;48.590;8.866;2023-09-18T10:21:33;20.10;99.90
18291;DHT22;9271;48.590;8.866;2023-09-18T10:24:08;20.20;99.90
18291;DHT22;9271;48.590;8.866;2023-09-18T10:26:46;20.00;99.90
18291;DHT22;9271;48.590;8.866;2023-09-18T10:29:15;20.10;99.90
18291;DHT22;9271;48.590;8.866;2023-09-18T10:31:44;19.80;99.90
18291;DHT22;9271;48.590;8.866;2023-09-18T10:34:12;19.70;99.90
18291;DHT22;9271;48.590;8.866;2023-09-18T10:36:41;20.10;99.90
18291;DHT22;9271;48.590;8.866;2023-09-18T10:39:09;20.40;99.90
18291;DHT22;9271;48.590;8.866;2023-09-18T10:41:40;20.70;99.90
18291;DHT22;9271;48.590;8.866;2023-09-18T10:44:08;20.70;99.90
18291;DHT22;9271;48.590;8.866;2023-09-18T10:46:35;20.80;99.90
18291;DHT22;9271;48.590;8.866;2023-09-18T10:49:02;20.90;99.90
18291;DHT22;9271;48.590;8.866;2023-09-18T10:51:30;20.90;99.90
18291;DHT22;9271;48.590;8.866;2023-09-18T10:53:58;20.80;99.90
18291;DHT22;9271;48.590;8.866;2023-09-18T10:56:25;20.40;99.90
18291;DHT22;9271;48.590;8.866;2023-09-18T10:58:58;20.20;99.90
18291;DHT22;9271;48.590;8.866;2023-09-18T11:01:25;20.30;99.90
18291;DHT22;9271;48.590;8.866;2023-09-18T11:03:52;20.50;99.90
18291;DHT22;9271;48.590;8.866;2023-09-18T11:06:19;20.70;99.90
18291;DHT22;9271;48.590;8.866;2023-09-18T11:08:56;20.70;99.90
18291;DHT22;9271;48.590;8.866;2023-09-18T11:11:27;20.80;99.90
18291;DHT22;9271;48.590;8.866;2023-09-18T11:13:57;20.90;99.90
18291;DHT22;9271;48.590;8.866;2023-09-18T11:16:34;20.80;99.90
18291;DHT22;9271;48.590;8.866;2023-09-18T11:19:11;20.70;99.90
18291;DHT22;9271;48.590;8.866;2023-09-18T11:21:39;20.90;99.90
18291;DHT22;9271;48.590;8.866;2023-09-18T11:24:07;21.10;99.90
18291;DHT22;9271;48.590;8.866;2023-09-18T11:26:37;21.30;99.90
18291;DHT22;9271;48.590;8.866;2023-09-18T11:29:08;21.30;99.90
18291;DHT22;9271;48.590;8.866;2023-09-18T11:31:43;21.20;99.90
18291;DHT22;9271;48.590;8.866;2023-09-18T11:34:15;21.20;99.90
18291;DHT22;9271;48.590;8.866;2023-09-18T11:36:42;21.30;99.90
18291;DHT22;9271;48.590;8.866;2023-09-18T11:39:09;21.10;99.90
18291;DHT22;9271;48.590;8.866;2023-09-18T11:41:37;21.10;99.90
18291;DHT22;9271;48.590;8.866;2023-09-18T11:44:34;21.00;99.90
18291;DHT22;9271;48.590;8.866;2023-09-18T11:47:09;21.30;99.90
18291;DHT22;9271;48.590;8.866;2023-09-18T11:49:47;20.90;99.90
18291;DHT22;9271;48.590;8.866;2023-09-18T11:52:16;20.60;99.90
18291;DHT22;9271;48.590;8.866;2023-09-18T11:54:43;20.60;99.90
18291;DHT22;9271;48.590;8.866;2023-09-18T11:57:12;20.70;99.90
18291;DHT22;9271;48.590;8.866;2023-09-18T11:59:41;21.00;99.90
18291;DHT22;9271;48.590;8.866;2023-09-18T12:02:09;21.20;99.90
18291;DHT22;9271;48.590;8.866;2023-09-18T12:04:37;21.50;99.90
18291;DHT22;9271;48.590;8.866;2023-09-18T12:07:04;21.20;99.90
18291;DHT22;9271;48.590;8.866;2023-09-18T12:09:31;21.10;99.90
18291;DHT22;9271;48.590;8.866;2023-09-18T12:11:59;21.00;99.90
18291;DHT22;9271;48.590;8.866;2023-09-18T12:14:30;20.90;99.90
18291;DHT22;9271;48.590;8.866;2023-09-18T12:16:59;21.00;99.90
18291;DHT22;9271;48.590;8.866;2023-09-18T12:19:26;21.10;99.90
18291;DHT22;9271;48.590;8.866;2023-09-18T12:21:52;21.70;99.90
18291;DHT22;9271;48.590;8.866;2023-09-18T12:24:21;21.90;99.90
18291;DHT22;9271;48.590;8.866;2023-09-18T12:26:48;22.20;99.90
18291;DHT22;9271;48.590;8.866;2023-09-18T12:29:15;23.00;99.90
18291;DHT22;9271;48.590;8.866;2023-09-18T12:31:41;23.40;99.90
18291;DHT22;9271;48.590;8.866;2023-09-18T12:34:15;23.70;99.90
18291;DHT22;9271;48.590;8.866;2023-09-18T12:36:43;23.20;99.90
18291;DHT22;9271;48.590;8.866;2023-09-18T12:39:12;22.50;99.90
18291;DHT22;9271;48.590;8.866;2023-09-18T12:41:41;22.10;99.90
18291;DHT22;9271;48.590;8.866;2023-09-18T12:44:09;22.50;99.90
18291;DHT22;9271;48.590;8.866;2023-09-18T12:46:36;23.00;99.90
18291;DHT22;9271;48.590;8.866;2023-09-18T12:49:17;22.50;99.90
18291;DHT22;9271;48.590;8.866;2023-09-18T12:51:53;22.40;99.90
18291;DHT22;9271;48.590;8.866;2023-09-18T12:54:20;22.20;99.90
18291;DHT22;9271;48.590;8.866;2023-09-18T12:56:46;22.40;99.90
18291;DHT22;9271;48.590;8.866;2023-09-18T12:59:13;22.60;99.90
18291;DHT22;9271;48.590;8.866;2023-09-18T13:01:40;22.20;99.90
18291;DHT22;9271;48.590;8.866;2023-09-18T13:04:12;22.60;99.90
18291;DHT22;9271;48.590;8.866;2023-09-18T13:06:40;22.50;99.90
18291;DHT22;9271;48.590;8.866;2023-09-18T13:09:16;23.30;99.90
18291;DHT22;9271;48.590;8.866;2023-09-18T13:11:53;23.30;99.90
18291;DHT22;9271;48.590;8.866;2023-09-18T13:14:20;23.10;99.90
18291;DHT22;9271;48.590;8.866;2023-09-18T13:16:47;22.90;99.90
18291;DHT22;9271;48.590;8.866;2023-09-18T13:19:13;22.80;99.90
18291;DHT22;9271;48.590;8.866;2023-09-18T13:21:47;22.80;99.90
18291;DHT22;9271;48.590;8.866;2023-09-18T13:24:27;23.90;99.90
18291;DHT22;9271;48.590;8.866;2023-09-18T13:26:55;24.20;99.90
18291;DHT22;9271;48.590;8.866;2023-09-18T13:29:22;24.50;99.90
18291;DHT22;9271;48.590;8.866;2023-09-18T13:31:49;24.10;99.90
18291;DHT22;9271;48.590;8.866;2023-09-18T13:34:16;23.30;99.90
18291;DHT22;9271;48.590;8.866;2023-09-18T13:36:44;23.80;99.90
18291;DHT22;9271;48.590;8.866;2023-09-18T13:39:12;23.40;99.90
18291;DHT22;9271;48.590;8.866;2023-09-18T13:41:42;23.10;99.90
18291;DHT22;9271;48.590;8.866;2023-09-18T13:44:09;22.70;99.90
18291;DHT22;9271;48.590;8.866;2023-09-18T13:46:36;22.20;99.90
18291;DHT22;9271;48.590;8.866;2023-09-18T13:49:03;22.20;99.90
18291;DHT22;9271;48.590;8.866;2023-09-18T13:51:30;22.30;99.90
18291;DHT22;9271;48.590;8.866;2023-09-18T13:53:57;22.50;99.90
18291;DHT22;9271;48.590;8.866;2023-09-18T13:56:25;23.40;99.90
18291;DHT22;9271;48.590;8.866;2023-09-18T13:58:54;24.40;99.90
18291;DHT22;9271;48.590;8.866;2023-09-18T14:01:21;25.00;99.30
18291;DHT22;9271;48.590;8.866;2023-09-18T14:03:48;25.40;98.60
18291;DHT22;9271;48.590;8.866;2023-09-18T14:06:16;24.70;98.80
18291;DHT22;9271;48.590;8.866;2023-09-18T14:08:42;24.20;99.10
18291;DHT22;9271;48.590;8.866;2023-09-18T14:11:09;23.90;99.40
18291;DHT22;9271;48.590;8.866;2023-09-18T14:13:37;23.50;99.90
18291;DHT22;9271;48.590;8.866;2023-09-18T14:16:04;23.80;99.90
18291;DHT22;9271;48.590;8.866;2023-09-18T14:18:31;23.40;99.90
18291;DHT22;9271;48.590;8.866;2023-09-18T14:20:58;22.80;99.90
18291;DHT22;9271;48.590;8.866;2023-09-18T14:23:25;22.70;99.90
18291;DHT22;9271;48.590;8.866;2023-09-18T14:25:52;22.80;99.90
18291;DHT22;9271;48.590;8.866;2023-09-18T14:28:20;23.00;99.90
18291;DHT22;9271;48.590;8.866;2023-09-18T14:30:48;23.10;99.90
18291;DHT22;9271;48.590;8.866;2023-09-18T14:33:14;22.90;99.90
18291;DHT22;9271;48.590;8.866;2023-09-18T14:35:41;22.70;99.90
18291;DHT22;9271;48.590;8.866;2023-09-18T14:38:07;23.30;99.90
18291;DHT22;9271;48.590;8.866;2023-09-18T14:40:34;24.30;99.90
18291;DHT22;9271;48.590;8.866;2023-09-18T14:43:01;25.00;99.40
18291;DHT22;9271;48.590;8.866;2023-09-18T14:45:27;24.70;98.10
18291;DHT22;9271;48.590;8.866;2023-09-18T14:47:55;24.20;99.10
18291;DHT22;9271;48.590;8.866;2023-09-18T14:50:22;23.80;99.50
18291;DHT22;9271;48.590;8.866;2023-09-18T14:52:49;23.80;99.70
18291;DHT22;9271;48.590;8.866;2023-09-18T14:55:15;23.80;99.70
18291;DHT22;9271;48.590;8.866;2023-09-18T14:57:42;23.60;99.90
18291;DHT22;9271;48.590;8.866;2023-09-18T15:00:10;23.50;99.90
18291;DHT22;9271;48.590;8.866;2023-09-18T15:02:38;22.90;99.90
18291;DHT22;9271;48.590;8.866;2023-09-18T15:05:06;23.20;99.90
18291;DHT22;9271;48.590;8.866;2023-09-18T15:07:37;23.50;99.90
18291;DHT22;9271;48.590;8.866;2023-09-18T15:10:05;23.30;99.90
18291;DHT22;9271;48.590;8.866;2023-09-18T15:12:33;23.50;99.90
18291;DHT22;9271;48.590;8.866;2023-09-18T15:15:00;24.10;99.50
18291;DHT22;9271;48.590;8.866;2023-09-18T15:17:27;24.60;98.90
18291;DHT22;9271;48.590;8.866;2023-09-18T15:19:54;25.30;97.50
18291;DHT22;9271;48.590;8.866;2023-09-18T15:22:23;25.90;96.60
18291;DHT22;9271;48.590;8.866;2023-09-18T15:24:50;25.10;97.70
18291;DHT22;9271;48.590;8.866;2023-09-18T15:27:17;24.10;99.40
18291;DHT22;9271;48.590;8.866;2023-09-18T15:29:44;24.00;99.80
18291;DHT22;9271;48.590;8.866;2023-09-18T15:32:11;24.70;98.20
18291;DHT22;9271;48.590;8.866;2023-09-18T15:34:37;24.80;97.80
18291;DHT22;9271;48.590;8.866;2023-09-18T15:37:04;24.70;97.80
18291;DHT22;9271;48.590;8.866;2023-09-18T15:39:32;24.40;98.60
18291;DHT22;9271;48.590;8.866;2023-09-18T15:42:00;24.50;98.60
18291;DHT22;9271;48.590;8.866;2023-09-18T15:44:27;25.00;98.20
18291;DHT22;9271;48.590;8.866;2023-09-18T15:46:54;25.30;97.20
18291;DHT22;9271;48.590;8.866;2023-09-18T15:49:20;23.80;98.30